Time;durP1;ratioP1;P1;durP2;ratioP2;P2;SDS_P1;SDS_P2;PMS_P1;PMS_P2;Temp;Humidity;BMP_temperature;BMP_pressure;BME280_temperature;BME280_humidity;BME280_pressure;Samples;Min_cycle;Max_cycle;Signal;HPM_P1;HPM_P2
2021/01/20 00:01:37;;;;;;;204.57;70.00;;;-17.00;76.80;;;;;;5013590;28;20021;-89
2021/01/20 00:04:02;;;;;;;223.07;75.00;;;-16.90;77.00;;;;;;5013499;28;20034;-90
2021/01/20 00:06:28;;;;;;;214.60;70.80;;;-17.10;76.80;;;;;;5013462;28;20392;-90
2021/01/20 00:08:54;;;;;;;228.30;79.20;;;-17.10;77.00;;;;;;5013661;28;20026;-90
2021/01/20 00:11:19;;;;;;;239.03;82.67;;;-17.20;77.20;;;;;;5013636;28;20391;-90
2021/01/20 00:13:45;;;;;;;238.73;80.90;;;-17.20;77.40;;;;;;5013269;28;20527;-90
2021/01/20 00:16:11;;;;;;;191.10;69.53;;;-17.20;78.10;;;;;;5014714;28;20456;-90
2021/01/20 00:18:37;;;;;;;185.67;65.07;;;-17.30;78.00;;;;;;5013337;28;20068;-90
2021/01/20 00:21:03;;;;;;;187.67;64.33;;;-17.20;77.90;;;;;;5013775;28;20460;-90
2021/01/20 00:23:28;;;;;;;210.17;71.97;;;-17.20;77.80;;;;;;5014320;28;20032;-90
2021/01/20 00:25:54;;;;;;;223.10;77.47;;;-17.20;78.10;;;;;;5017112;28;20030;-89
2021/01/20 00:28:20;;;;;;;184.23;63.10;;;-17.30;77.80;;;;;;5017187;28;20030;-90
2021/01/20 00:30:46;;;;;;;238.77;76.53;;;-17.30;77.60;;;;;;5017177;28;20049;-90
2021/01/20 00:33:12;;;;;;;231.97;75.30;;;-17.30;77.50;;;;;;5017458;28;20033;-90
2021/01/20 00:35:38;;;;;;;205.47;69.47;;;-17.30;77.80;;;;;;5017378;28;20040;-90
2021/01/20 00:38:04;;;;;;;237.53;82.03;;;-17.30;77.70;;;;;;5017042;28;20087;-90
2021/01/20 00:40:29;;;;;;;237.03;79.63;;;-17.40;77.50;;;;;;5017996;28;20093;-90
2021/01/20 00:42:55;;;;;;;214.17;71.07;;;-17.40;77.80;;;;;;5016781;28;20116;-90
2021/01/20 00:45:21;;;;;;;221.13;73.03;;;-17.40;77.60;;;;;;5016830;28;20037;-90
2021/01/20 00:47:46;;;;;;;220.03;76.13;;;-17.40;77.40;;;;;;5018129;28;20479;-90
2021/01/20 00:50:12;;;;;;;211.53;66.93;;;-17.40;77.40;;;;;;5016942;28;20053;-90
2021/01/20 00:52:38;;;;;;;213.87;72.13;;;-17.30;77.50;;;;;;5016796;28;20030;-90
2021/01/20 00:55:06;;;;;;;215.53;68.00;;;-17.40;77.40;;;;;;5017821;28;20058;-90
2021/01/20 00:57:32;;;;;;;213.23;64.50;;;-17.40;77.40;;;;;;5016423;28;20022;-90
2021/01/20 00:59:57;;;;;;;235.87;66.90;;;-17.40;77.10;;;;;;5016713;28;20026;-90
2021/01/20 01:02:23;;;;;;;233.93;77.23;;;;;;;;;;5016269;28;20443;-90
2021/01/20 01:04:49;;;;;;;234.07;74.57;;;-17.40;76.30;;;;;;5017031;28;20021;-90
2021/01/20 01:07:15;;;;;;;231.93;75.40;;;-17.50;76.80;;;;;;5017641;28;20029;-90
2021/01/20 01:09:40;;;;;;;215.00;68.53;;;-17.50;76.90;;;;;;5018314;28;20353;-90
2021/01/20 01:12:06;;;;;;;213.60;64.90;;;-17.50;77.00;;;;;;5040542;28;20014;-90
2021/01/20 01:14:32;;;;;;;213.60;64.23;;;-17.50;77.00;;;;;;5025882;28;20034;-90
2021/01/20 01:16:58;;;;;;;185.10;59.23;;;-17.50;77.00;;;;;;5017333;28;20030;-90
2021/01/20 01:19:23;;;;;;;203.73;60.63;;;-17.40;76.90;;;;;;5017439;28;20045;-90
2021/01/20 01:21:49;;;;;;;186.27;59.33;;;-17.40;76.70;;;;;;5016478;28;20030;-90
2021/01/20 01:24:16;;;;;;;170.70;55.40;;;-17.40;76.50;;;;;;5016530;28;20498;-91
2021/01/20 01:26:42;;;;;;;184.20;56.83;;;-17.20;76.50;;;;;;5016202;28;20468;-90
2021/01/20 01:29:07;;;;;;;202.63;66.90;;;-17.40;76.30;;;;;;5016195;28;20084;-90
2021/01/20 01:31:33;;;;;;;195.70;62.40;;;-17.40;76.10;;;;;;5016016;28;20056;-90
2021/01/20 01:33:59;;;;;;;208.47;69.70;;;-17.50;76.50;;;;;;5017205;28;20053;-90
2021/01/20 01:36:24;;;;;;;195.67;63.13;;;-17.50;76.60;;;;;;5015531;28;20038;-90
2021/01/20 01:38:50;;;;;;;183.57;60.43;;;-17.60;76.80;;;;;;5016859;28;20033;-90
2021/01/20 01:41:16;;;;;;;185.50;59.70;;;-17.60;77.00;;;;;;5017621;28;20414;-90
2021/01/20 01:43:41;;;;;;;173.53;56.37;;;-17.60;77.20;;;;;;5015837;28;20120;-90
2021/01/20 01:46:07;;;;;;;174.60;54.90;;;-17.60;77.50;;;;;;5015953;28;20026;-89
2021/01/20 01:48:33;;;;;;;188.77;57.13;;;-17.60;77.20;;;;;;5015819;28;20033;-90
2021/01/20 01:50:59;;;;;;;198.63;60.33;;;-17.60;76.70;;;;;;5015586;28;20081;-90
2021/01/20 01:53:24;;;;;;;170.80;55.50;;;-17.60;76.70;;;;;;5017253;28;20037;-90
2021/01/20 01:55:50;;;;;;;181.73;55.90;;;-17.60;76.70;;;;;;5015907;28;20064;-90
2021/01/20 01:58:16;;;;;;;218.63;64.50;;;-17.60;76.40;;;;;;5016924;28;20060;-90
2021/01/20 02:00:42;;;;;;;203.87;59.67;;;-17.50;76.40;;;;;;5015501;28;20465;-90
2021/01/20 02:03:08;;;;;;;180.53;57.30;;;-17.60;76.40;;;;;;5016363;28;20405;-90
2021/01/20 02:05:34;;;;;;;196.10;57.37;;;-17.50;76.30;;;;;;5015233;28;20030;-90
2021/01/20 02:08:02;;;;;;;194.27;63.60;;;-17.50;77.00;;;;;;5015558;28;20049;-90
2021/01/20 02:10:28;;;;;;;163.23;57.80;;;-17.60;76.40;;;;;;5015572;28;20026;-90
2021/01/20 02:13:25;;;;;;;166.97;52.80;;;-17.60;76.40;;;;;;5015512;28;20041;-90
2021/01/20 02:16:17;;;;;;;144.00;49.93;;;-17.60;76.30;;;;;;5015218;28;20122;-90
2021/01/20 02:18:48;;;;;;;148.40;49.40;;;-17.60;76.20;;;;;;5015222;28;20037;-90
2021/01/20 02:21:32;;;;;;;;;;;-17.60;76.30;;;;;;5015491;28;20034;-90
2021/01/20 02:23:59;;;;;;;138.23;47.30;;;-17.60;76.00;;;;;;5014947;28;19909;-90
2021/01/20 02:26:28;;;;;;;142.57;46.97;;;-17.60;76.00;;;;;;5014971;28;20029;-90
2021/01/20 02:29:09;;;;;;;142.23;46.87;;;-17.60;76.20;;;;;;5015130;28;20375;-90
2021/01/20 02:31:35;;;;;;;137.37;45.33;;;-17.60;76.20;;;;;;5014885;28;20537;-90
2021/01/20 02:34:09;;;;;;;164.50;56.47;;;-17.60;76.10;;;;;;5016048;28;20084;-90
2021/01/20 02:36:36;;;;;;;158.20;51.70;;;-17.60;76.20;;;;;;5014770;28;20072;-90
2021/01/20 02:39:02;;;;;;;151.33;54.37;;;-17.70;75.90;;;;;;5014752;28;20109;-90
2021/01/20 02:41:29;;;;;;;160.47;56.40;;;-17.60;76.00;;;;;;5014865;28;20061;-89
2021/01/20 02:43:59;;;;;;;166.87;55.30;;;-17.70;76.20;;;;;;5014522;28;20034;-90
2021/01/20 02:46:25;;;;;;;154.07;51.38;;;-17.80;76.50;;;;;;5014005;28;20069;-89
2021/01/20 02:48:52;;;;;;;146.83;51.40;;;-17.80;76.80;;;;;;5014195;28;20062;-90
2021/01/20 02:51:50;;;;;;;164.57;55.67;;;-17.80;76.50;;;;;;5014514;28;20047;-90
2021/01/20 02:54:19;;;;;;;150.03;51.60;;;-17.90;76.50;;;;;;5014529;28;20035;-90
2021/01/20 02:56:47;;;;;;;153.67;49.23;;;-17.90;76.40;;;;;;5014560;28;20041;-90
2021/01/20 02:59:14;;;;;;;183.17;57.30;;;-17.90;76.50;;;;;;5031394;28;20036;-89
2021/01/20 03:01:45;;;;;;;183.20;63.13;;;-17.80;76.80;;;;;;5028954;28;20030;-89
2021/01/20 03:04:16;;;;;;;195.43;63.97;;;-17.90;76.80;;;;;;5015211;28;20056;-90
2021/01/20 03:06:45;;;;;;;226.23;72.13;;;-17.90;76.90;;;;;;5014490;28;20026;-90
2021/01/20 03:09:15;;;;;;;253.33;77.87;;;-18.00;76.90;;;;;;5014363;28;20543;-90
2021/01/20 03:11:49;;;;;;;271.58;82.82;;;-18.00;76.70;;;;;;5014411;28;20076;-90
2021/01/20 03:14:16;;;;;;;238.60;69.03;;;-18.10;76.80;;;;;;5014400;28;20034;-90
2021/01/20 03:16:42;;;;;;;226.77;69.17;;;-18.10;76.80;;;;;;5014201;28;20022;-90
2021/01/20 03:19:08;;;;;;;219.53;60.07;;;-18.10;77.20;;;;;;5015341;28;20022;-90
2021/01/20 03:21:34;;;;;;;169.27;58.87;;;-18.10;77.10;;;;;;5014330;28;20068;-90
2021/01/20 03:24:00;;;;;;;175.83;51.33;;;-18.00;77.10;;;;;;5014049;28;20029;-90
2021/01/20 03:26:25;;;;;;;147.03;45.20;;;-18.00;77.10;;;;;;5013941;28;20022;-90
2021/01/20 03:28:51;;;;;;;137.57;47.90;;;-18.00;76.90;;;;;;5013990;28;20064;-90
2021/01/20 03:31:17;;;;;;;141.50;47.73;;;-17.90;76.80;;;;;;5013954;28;20093;-90
2021/01/20 03:33:42;;;;;;;157.97;52.13;;;-17.90;76.70;;;;;;5014188;28;20522;-90
2021/01/20 03:36:08;;;;;;;161.10;51.47;;;-17.90;77.30;;;;;;5014140;28;20376;-90
2021/01/20 03:38:34;;;;;;;141.37;47.97;;;-18.00;76.90;;;;;;5014168;28;20033;-87
2021/01/20 03:41:00;;;;;;;138.53;46.87;;;-18.00;77.20;;;;;;5013788;28;20141;-89
2021/01/20 03:43:25;;;;;;;141.93;47.90;;;-18.00;77.10;;;;;;5013918;28;20052;-90
2021/01/20 03:45:51;;;;;;;148.03;49.93;;;-18.00;77.00;;;;;;5013993;28;20026;-90
2021/01/20 03:48:17;;;;;;;166.87;55.10;;;-18.00;76.90;;;;;;5014032;28;20475;-90
2021/01/20 03:50:43;;;;;;;155.23;52.87;;;-18.00;77.10;;;;;;5014055;28;20460;-89
2021/01/20 03:53:09;;;;;;;164.23;55.57;;;-18.10;77.40;;;;;;5013818;28;20033;-90
2021/01/20 03:55:34;;;;;;;161.27;52.60;;;-18.10;77.60;;;;;;5013753;28;20538;-90
2021/01/20 03:58:00;;;;;;;153.33;50.77;;;-18.10;77.70;;;;;;5014898;28;20026;-90
2021/01/20 04:00:26;;;;;;;147.03;47.57;;;-18.10;77.70;;;;;;5013365;28;20109;-90
2021/01/20 04:02:51;;;;;;;140.33;46.13;;;-18.10;77.70;;;;;;5013537;28;20096;-90
2021/01/20 04:05:17;;;;;;;148.60;49.13;;;-18.10;77.50;;;;;;5013432;28;20034;-90
2021/01/20 04:07:43;;;;;;;164.20;53.20;;;-18.00;77.30;;;;;;5014814;28;20058;-90
2021/01/20 04:10:09;;;;;;;160.17;53.20;;;-18.00;77.00;;;;;;5013959;28;20373;-90
2021/01/20 04:12:36;;;;;;;172.53;54.50;;;-18.00;76.90;;;;;;5014344;28;20025;-90
2021/01/20 04:15:06;;;;;;;157.03;52.10;;;-17.90;76.70;;;;;;5013447;28;20030;-90
2021/01/20 04:17:32;;;;;;;144.68;46.97;;;-17.90;76.60;;;;;;4993600;28;20029;-90
2021/01/20 04:19:58;;;;;;;129.83;38.90;;;-17.90;76.60;;;;;;4993771;28;20035;-88
2021/01/20 04:22:24;;;;;;;136.87;43.60;;;-17.90;76.60;;;;;;4993481;28;20392;-88
2021/01/20 04:24:50;;;;;;;129.27;43.87;;;-17.80;76.50;;;;;;4993273;28;20165;-88
2021/01/20 04:27:16;;;;;;;132.67;42.10;;;-17.80;76.30;;;;;;4995414;28;20539;-89
2021/01/20 04:29:42;;;;;;;115.90;39.50;;;-17.80;76.20;;;;;;5012763;28;20099;-88
2021/01/20 04:32:07;;;;;;;108.13;34.60;;;-17.80;76.20;;;;;;5011915;28;20026;-89
2021/01/20 04:34:33;;;;;;;156.10;50.90;;;-17.80;76.20;;;;;;5011612;28;20581;-88
2021/01/20 04:36:59;;;;;;;158.03;52.30;;;-17.70;76.20;;;;;;5012325;28;20022;-89
2021/01/20 04:39:25;;;;;;;167.63;57.30;;;-17.70;76.30;;;;;;5013315;28;20048;-89
2021/01/20 04:41:51;;;;;;;157.33;51.77;;;-17.80;76.70;;;;;;5012374;28;20022;-88
2021/01/20 04:44:17;;;;;;;133.87;50.67;;;-17.90;76.90;;;;;;5012354;28;20026;-88
2021/01/20 04:46:44;;;;;;;148.97;51.37;;;-17.90;77.90;;;;;;5031828;28;20021;-88
2021/01/20 04:49:16;;;;;;;159.53;50.03;;;-17.90;77.70;;;;;;5019284;28;20045;-88
2021/01/20 04:51:44;;;;;;;153.97;52.07;;;-18.00;77.70;;;;;;5012770;28;20061;-88
2021/01/20 04:54:11;;;;;;;149.97;52.97;;;-17.90;77.70;;;;;;5012152;28;20030;-88
2021/01/20 04:56:38;;;;;;;138.43;47.27;;;-18.00;77.50;;;;;;5013411;28;20030;-88
2021/01/20 04:59:07;;;;;;;179.10;54.80;;;-18.00;78.40;;;;;;5012463;28;20519;-88
2021/01/20 05:01:33;;;;;;;163.10;50.93;;;-18.00;77.60;;;;;;5012419;28;20038;-89
2021/01/20 05:04:00;;;;;;;219.57;65.37;;;-18.00;77.50;;;;;;5013159;28;20054;-88
2021/01/20 05:06:28;;;;;;;294.93;79.60;;;-18.00;77.50;;;;;;5012487;28;20664;-88
2021/01/20 05:08:54;;;;;;;313.53;95.67;;;-18.00;77.30;;;;;;5011767;28;20067;-88
2021/01/20 05:11:19;;;;;;;340.33;106.67;;;-18.00;76.90;;;;;;5014856;28;20026;-88
2021/01/20 05:13:45;;;;;;;347.43;105.07;;;-18.00;76.70;;;;;;5017781;28;20105;-89
2021/01/20 05:16:25;;;;;;;321.53;94.63;;;-18.10;76.60;;;;;;5016328;28;20038;-88
2021/01/20 05:18:51;;;;;;;260.60;72.97;;;-18.10;77.00;;;;;;5016139;28;20038;-89
2021/01/20 05:21:17;;;;;;;211.27;67.07;;;-18.10;76.90;;;;;;5016339;28;20030;-88
2021/01/20 05:23:43;;;;;;;185.77;62.07;;;-18.10;76.60;;;;;;5015758;28;20041;-88
2021/01/20 05:26:09;;;;;;;168.20;51.67;;;-18.10;76.80;;;;;;5015976;28;20022;-89
2021/01/20 05:28:36;;;;;;;151.73;46.67;;;-18.10;77.00;;;;;;5016149;28;20506;-89
2021/01/20 05:31:04;;;;;;;146.63;45.43;;;-18.10;77.00;;;;;;5014942;28;20026;-89
2021/01/20 05:33:38;;;;;;;142.03;45.17;;;-18.10;76.90;;;;;;5014249;28;20026;-89
2021/01/20 05:36:12;;;;;;;145.17;45.50;;;-18.10;76.80;;;;;;5012706;28;20092;-88
2021/01/20 05:38:51;;;;;;;151.47;47.47;;;-18.10;76.90;;;;;;5013618;28;20026;-90
2021/01/20 05:41:23;;;;;;;160.77;52.90;;;-18.00;76.80;;;;;;5014803;28;20514;-89
2021/01/20 05:43:51;;;;;;;168.33;52.60;;;-18.00;77.00;;;;;;5015928;28;20029;-89
2021/01/20 05:46:34;;;;;;;139.20;48.30;;;-18.00;77.50;;;;;;5015541;28;20022;-90
2021/01/20 05:49:00;;;;;;;155.87;49.20;;;-18.00;77.70;;;;;;5015379;28;20030;-85
2021/01/20 05:51:36;;;;;;;153.33;51.07;;;-18.00;77.50;;;;;;5014961;28;20022;-84
2021/01/20 05:54:03;;;;;;;172.13;53.83;;;-18.10;77.70;;;;;;5015525;28;20057;-84
2021/01/20 05:56:30;;;;;;;196.23;62.43;;;-18.00;77.60;;;;;;5015404;28;20037;-85
2021/01/20 05:58:56;;;;;;;175.90;58.67;;;-18.00;77.40;;;;;;5016520;28;20029;-85
2021/01/20 06:01:23;;;;;;;175.13;61.47;;;-18.00;77.20;;;;;;5015112;28;20030;-85
2021/01/20 06:03:49;;;;;;;182.33;59.27;;;-17.90;77.20;;;;;;5014956;28;20053;-84
2021/01/20 06:06:16;;;;;;;183.33;58.43;;;-17.90;77.10;;;;;;5015300;28;20431;-85
2021/01/20 06:08:42;;;;;;;175.33;58.77;;;-18.00;77.00;;;;;;5014849;28;20029;-85
2021/01/20 06:11:08;;;;;;;140.17;46.00;;;-17.90;77.00;;;;;;5015001;28;20079;-84
2021/01/20 06:13:35;;;;;;;143.40;48.50;;;-17.80;77.00;;;;;;5014482;28;20034;-85
2021/01/20 06:16:24;;;;;;;156.10;56.27;;;-17.70;76.90;;;;;;5014185;28;20112;-85
2021/01/20 06:18:54;;;;;;;204.63;75.70;;;-17.70;76.70;;;;;;5009681;28;20041;-84
2021/01/20 06:21:20;;;;;;;182.45;65.13;;;-17.80;76.60;;;;;;5002448;28;20034;-85
2021/01/20 06:23:54;;;;;;;144.43;49.97;;;-17.70;76.90;;;;;;5046908;28;20029;-84
2021/01/20 06:26:23;;;;;;;140.20;47.30;;;-17.70;76.90;;;;;;5013955;28;20796;-85
2021/01/20 06:28:55;;;;;;;170.07;58.20;;;-17.60;76.90;;;;;;4997023;28;20503;-84
2021/01/20 06:31:23;;;;;;;173.83;58.83;;;-17.70;77.00;;;;;;5005678;28;20018;-85
2021/01/20 06:33:49;;;;;;;191.90;62.53;;;-17.60;77.40;;;;;;5028919;28;20006;-85
2021/01/20 06:36:34;;;;;;;162.37;51.10;;;-17.50;77.30;;;;;;5024391;28;20109;-82
2021/01/20 06:39:21;;;;;;;174.70;61.40;;;-17.40;77.10;;;;;;4995002;28;20041;-82
2021/01/20 06:41:47;;;;;;;188.57;60.43;;;-17.50;77.50;;;;;;5026541;28;20041;-82
2021/01/20 06:44:14;;;;;;;166.93;53.57;;;-17.40;78.20;;;;;;5027621;28;20504;-81
2021/01/20 06:46:59;;;;;;;164.63;56.93;;;-17.30;78.20;;;;;;5026171;28;20037;-82
2021/01/20 06:49:34;;;;;;;157.90;53.83;;;-17.30;78.50;;;;;;5026121;28;20113;-82
2021/01/20 06:52:15;;;;;;;139.27;48.90;;;-17.30;78.40;;;;;;5030773;28;20026;-82
2021/01/20 06:54:46;;;;;;;133.50;45.33;;;-17.20;78.00;;;;;;5013139;28;20026;-82
2021/01/20 06:57:32;;;;;;;140.63;50.90;;;-17.10;77.80;;;;;;5013167;28;20029;-82
2021/01/20 07:00:15;;;;;;;151.13;53.87;;;-17.10;78.30;;;;;;5013194;28;20101;-82
2021/01/20 07:03:00;;;;;;;140.60;50.33;;;-17.00;78.40;;;;;;5014136;28;20544;-83
2021/01/20 07:05:40;;;;;;;161.37;54.83;;;-16.90;78.30;;;;;;5012852;28;20037;-83
2021/01/20 07:08:07;;;;;;;157.03;51.93;;;-16.80;79.20;;;;;;5012721;28;20025;-82
2021/01/20 07:10:59;;;;;;;132.30;46.07;;;-16.70;78.40;;;;;;5012941;28;20025;-82
2021/01/20 07:13:32;;;;;;;143.13;46.87;;;-16.60;77.90;;;;;;5013172;28;20034;-82
2021/01/20 07:15:58;;;;;;;127.97;41.97;;;-16.40;77.40;;;;;;5013313;28;20048;-82
2021/01/20 07:18:25;;;;;;;113.37;40.10;;;-16.40;77.40;;;;;;5013136;28;20026;-82
2021/01/20 07:20:52;;;;;;;102.83;37.93;;;-16.30;77.40;;;;;;5013282;28;20065;-81
2021/01/20 07:23:18;;;;;;;130.07;47.50;;;-16.20;77.30;;;;;;5013907;28;20022;-80
2021/01/20 07:25:46;;;;;;;112.57;43.03;;;-16.20;77.50;;;;;;5012648;28;20026;-81
2021/01/20 07:28:12;;;;;;;109.97;40.90;;;-16.10;78.10;;;;;;5013214;28;20033;-81
2021/01/20 07:30:38;;;;;;;122.83;43.13;;;-16.00;77.80;;;;;;5013119;28;20025;-81
2021/01/20 07:33:24;;;;;;;134.00;46.83;;;-15.90;77.80;;;;;;5013985;28;20403;-82
2021/01/20 07:35:50;;;;;;;132.50;47.10;;;-15.80;77.60;;;;;;5012846;28;20029;-82
2021/01/20 07:38:16;;;;;;;117.33;42.33;;;-15.70;77.30;;;;;;5012965;28;20033;-81
2021/01/20 07:40:44;;;;;;;104.43;39.77;;;-15.70;78.00;;;;;;5012974;28;20030;-81
2021/01/20 07:43:20;;;;;;;109.43;39.17;;;-15.60;77.40;;;;;;5012645;28;20168;-80
2021/01/20 07:45:46;;;;;;;116.73;41.03;;;-15.40;77.40;;;;;;5011895;28;20022;-81
2021/01/20 07:48:13;;;;;;;113.03;39.63;;;-15.40;77.00;;;;;;5012306;28;20022;-81
2021/01/20 07:50:48;;;;;;;130.83;45.47;;;-15.20;76.80;;;;;;5012014;28;20472;-81
2021/01/20 07:53:20;;;;;;;158.00;55.27;;;-15.10;76.80;;;;;;5011918;28;20060;-81
2021/01/20 07:55:54;;;;;;;154.83;53.87;;;-15.10;76.40;;;;;;5012088;28;20034;-81
2021/01/20 07:58:29;;;;;;;189.83;68.37;;;-14.90;76.40;;;;;;5012199;28;20523;-81
2021/01/20 08:00:56;;;;;;;175.70;66.40;;;-14.80;76.50;;;;;;5013047;28;20033;-81
2021/01/20 08:03:33;;;;;;;193.97;64.47;;;-14.70;76.40;;;;;;5012646;28;20050;-81
2021/01/20 08:06:00;;;;;;;182.40;66.77;;;-14.60;76.40;;;;;;5012789;28;20059;-81
2021/01/20 08:08:26;;;;;;;215.80;81.97;;;-14.50;76.20;;;;;;5013023;28;20022;-81
2021/01/20 08:10:56;;;;;;;193.07;77.57;;;-14.40;75.80;;;;;;5012615;28;20140;-81
2021/01/20 08:13:25;;;;;;;199.75;73.22;;;-14.30;75.30;;;;;;5012148;28;20030;-81
2021/01/20 08:15:51;;;;;;;216.20;83.23;;;-14.30;75.70;;;;;;5012032;28;20045;-81
2021/01/20 08:18:18;;;;;;;160.97;64.03;;;-14.20;76.00;;;;;;5012657;28;20033;-81
2021/01/20 08:20:44;;;;;;;158.30;59.43;;;-14.10;75.30;;;;;;5016818;28;20033;-81
2021/01/20 08:23:51;;;;;;;155.43;60.27;;;-14.00;75.60;;;;;;5018021;28;20030;-81
2021/01/20 08:26:25;;;;;;;152.53;54.67;;;-13.90;75.50;;;;;;4994585;28;20030;-81
2021/01/20 08:29:10;;;;;;;152.67;53.53;;;-13.70;75.50;;;;;;5010844;28;20040;-80
2021/01/20 08:31:41;;;;;;;155.77;54.53;;;-13.60;75.60;;;;;;5021156;28;20038;-81
2021/01/20 08:34:14;;;;;;;;;;;-13.40;75.50;;;;;;5012413;28;20034;-81
2021/01/20 08:36:54;;;;;;;118.63;44.17;;;-13.30;75.00;;;;;;5011526;28;20343;-80
2021/01/20 08:39:20;;;;;;;93.35;35.63;;;-13.20;74.10;;;;;;5011747;28;20069;-81
2021/01/20 08:42:11;;;;;;;77.10;29.33;;;-13.10;74.40;;;;;;5011572;28;20057;-81
2021/01/20 08:44:38;;;;;;;93.73;36.40;;;-13.00;73.30;;;;;;5011499;28;20037;-81
2021/01/20 08:47:04;;;;;;;86.23;36.07;;;-13.10;71.70;;;;;;4998711;28;20033;-81
2021/01/20 08:49:31;;;;;;;98.03;37.50;;;-13.00;71.50;;;;;;5014997;28;20025;-81
2021/01/20 08:51:57;;;;;;;93.77;38.40;;;-12.90;71.70;;;;;;5015076;28;20068;-81
2021/01/20 08:54:28;;;;;;;95.60;39.93;;;-13.00;72.20;;;;;;5015291;28;20096;-80
2021/01/20 08:57:14;;;;;;;92.95;38.10;;;-12.80;71.90;;;;;;5016308;28;20064;-81
2021/01/20 09:00:09;;;;;;;103.07;40.23;;;-13.20;72.00;;;;;;5014634;28;20037;-80
2021/01/20 09:02:35;;;;;;;107.77;41.77;;;-12.70;72.20;;;;;;5009983;28;20050;-80
2021/01/20 09:05:03;;;;;;;100.47;36.23;;;-12.60;72.10;;;;;;5014916;28;20080;-82
2021/01/20 09:07:29;;;;;;;95.27;35.23;;;-12.50;72.00;;;;;;4998723;28;20538;-81
2021/01/20 09:09:54;;;;;;;99.63;40.57;;;-12.50;71.70;;;;;;5014797;28;20018;-81
2021/01/20 09:12:20;;;;;;;105.57;40.13;;;-15.40;69.10;;;;;;5015187;28;20116;-81
2021/01/20 09:14:46;;;;;;;95.07;35.43;;;-12.50;71.30;;;;;;4999078;28;20026;-81
2021/01/20 09:17:12;;;;;;;96.20;38.40;;;-12.40;72.10;;;;;;5015489;28;20033;-81
2021/01/20 09:19:37;;;;;;;91.30;32.92;;;-12.30;71.10;;;;;;5015886;28;20022;-82
2021/01/20 09:22:05;;;;;;;92.18;35.78;;;-12.20;71.40;;;;;;5015623;28;20033;-82
2021/01/20 09:24:32;;;;;;;96.10;39.30;;;-12.30;69.00;;;;;;5015490;28;20038;-82
2021/01/20 09:26:57;;;;;;;87.83;31.27;;;-12.20;70.10;;;;;;5016470;28;20026;-82
2021/01/20 09:29:28;;;;;;;81.53;31.90;;;-9.50;71.80;;;;;;4982898;28;20026;-80
2021/01/20 09:31:55;;;;;;;116.93;44.78;;;-12.20;69.00;;;;;;5015216;28;20052;-82
2021/01/20 09:34:21;;;;;;;100.85;38.33;;;-10.90;70.20;;;;;;5015105;28;20037;-81
2021/01/20 09:36:48;;;;;;;94.38;38.50;;;-12.00;70.20;;;;;;5016579;28;20026;-83
2021/01/20 09:39:14;;;;;;;87.75;33.08;;;-11.90;69.40;;;;;;4998918;28;20030;-86
2021/01/20 09:41:42;;;;;;;80.15;32.17;;;-11.80;69.20;;;;;;5015028;28;20121;-90
2021/01/20 09:44:08;;;;;;;94.45;37.80;;;-13.50;65.80;;;;;;4998988;28;20037;-87
2021/01/20 09:46:33;;;;;;;86.57;35.38;;;-11.80;67.20;;;;;;4999546;28;20030;-83
2021/01/20 09:48:59;;;;;;;80.53;33.58;;;-11.60;67.10;;;;;;5014684;28;20074;-83
2021/01/20 09:51:30;;;;;;;125.43;46.78;;;-10.70;67.90;;;;;;5014583;28;20022;-83
2021/01/20 09:53:56;;;;;;;;;;;-11.60;68.10;;;;;;5015739;28;20521;-83
2021/01/20 09:56:23;;;;;;;103.97;43.80;;;-11.50;67.50;;;;;;5014320;28;19912;-83
2021/01/20 09:58:48;;;;;;;92.00;36.83;;;-11.80;66.30;;;;;;5014834;28;20026;-83
2021/01/20 10:01:14;;;;;;;94.90;38.53;;;-11.40;66.50;;;;;;5015167;28;20037;-83
2021/01/20 10:03:40;;;;;;;115.47;45.63;;;-11.40;67.30;;;;;;5014249;28;20495;-83
2021/01/20 10:06:06;;;;;;;92.57;38.58;;;-13.70;64.50;;;;;;5022603;28;20026;-82
2021/01/20 10:08:33;;;;;;;95.82;36.25;;;-11.10;66.20;;;;;;5019814;28;20026;-83
2021/01/20 10:11:00;;;;;;;97.00;38.38;;;-11.10;67.40;;;;;;5014793;28;20034;-83
2021/01/20 10:13:26;;;;;;;133.20;48.35;;;-11.10;66.70;;;;;;5013803;28;20030;-83
2021/01/20 10:15:53;;;;;;;92.32;38.20;;;-11.00;68.20;;;;;;5015018;28;20046;-83
2021/01/20 10:18:19;;;;;;;93.13;36.42;;;-10.90;67.00;;;;;;4997405;28;20101;-83
2021/01/20 10:20:50;;;;;;;109.68;46.00;;;-10.80;66.40;;;;;;5014032;28;20113;-82
2021/01/20 10:23:17;;;;;;;83.10;33.17;;;-10.80;66.20;;;;;;5013623;28;20037;-83
2021/01/20 10:25:45;;;;;;;81.20;34.50;;;-10.80;67.30;;;;;;5013903;28;20037;-82
2021/01/20 10:28:11;;;;;;;91.45;37.78;;;-10.70;67.60;;;;;;5013645;28;20025;-82
2021/01/20 10:30:37;;;;;;;81.38;32.35;;;-10.70;66.20;;;;;;5014098;28;20030;-82
2021/01/20 10:33:04;;;;;;;75.35;29.85;;;-10.60;65.60;;;;;;5014596;28;20361;-83
2021/01/20 10:35:29;;;;;;;75.68;31.83;;;-8.70;66.90;;;;;;5013858;28;20468;-82
2021/01/20 10:37:57;;;;;;;94.10;33.97;;;-10.70;63.90;;;;;;5013502;28;20036;-82
2021/01/20 10:40:23;;;;;;;84.47;32.67;;;-10.70;63.30;;;;;;5013511;28;20460;-82
2021/01/20 10:42:49;;;;;;;86.05;33.10;;;-10.60;64.40;;;;;;4996689;28;20136;-83
2021/01/20 10:45:15;;;;;;;83.65;34.67;;;-10.50;63.70;;;;;;5013348;28;20029;-83
2021/01/20 10:47:42;;;;;;;80.10;31.75;;;-10.50;63.70;;;;;;5012864;28;20084;-83
2021/01/20 10:50:08;;;;;;;94.22;38.17;;;-10.40;64.60;;;;;;5013135;28;20022;-82
2021/01/20 10:52:33;;;;;;;79.28;33.58;;;-10.40;62.70;;;;;;5013146;28;20372;-83
2021/01/20 10:54:59;;;;;;;72.28;32.03;;;-10.20;64.80;;;;;;5012954;28;20022;-83
2021/01/20 10:57:25;;;;;;;82.90;32.83;;;-10.30;64.00;;;;;;4996696;28;20486;-82
2021/01/20 10:59:51;;;;;;;62.55;27.83;;;-10.20;64.40;;;;;;5013087;28;20116;-84
2021/01/20 11:02:18;;;;;;;71.57;29.77;;;-10.10;64.90;;;;;;5014154;28;20045;-83
2021/01/20 11:04:43;;;;;;;85.45;37.25;;;-10.00;63.80;;;;;;5014280;28;20480;-84
2021/01/20 11:07:10;;;;;;;79.35;34.92;;;-10.00;63.10;;;;;;5012946;28;20117;-83
2021/01/20 11:09:36;;;;;;;79.25;35.00;;;-9.90;63.70;;;;;;5012735;28;20741;-83
2021/01/20 11:12:02;;;;;;;134.00;51.95;;;-9.80;64.40;;;;;;5012660;28;20029;-83
2021/01/20 11:14:29;;;;;;;133.73;56.75;;;-9.90;62.70;;;;;;5013487;28;20026;-83
2021/01/20 11:16:58;;;;;;;103.18;44.28;;;-9.90;61.90;;;;;;5013626;28;20403;-84
2021/01/20 11:19:24;;;;;;;107.28;44.40;;;-9.90;63.30;;;;;;5014983;28;20084;-83
2021/01/20 11:21:50;;;;;;;129.02;55.03;;;-9.70;64.50;;;;;;5014064;28;20080;-82
2021/01/20 11:24:21;;;;;;;131.73;51.88;;;-9.80;60.90;;;;;;4997045;28;20476;-83
2021/01/20 11:26:47;;;;;;;176.93;59.40;;;-9.70;62.40;;;;;;5014649;28;20125;-83
2021/01/20 11:29:14;;;;;;;172.13;66.50;;;-9.70;62.00;;;;;;5013816;28;20112;-83
2021/01/20 11:31:40;;;;;;;110.32;47.15;;;-9.70;60.80;;;;;;5014374;28;20038;-83
2021/01/20 11:34:06;;;;;;;138.18;52.40;;;-9.60;61.40;;;;;;5013197;28;20041;-81
2021/01/20 11:36:32;;;;;;;95.82;42.22;;;-9.60;60.80;;;;;;5013364;28;20080;-81
2021/01/20 11:38:58;;;;;;;131.65;53.33;;;-9.70;60.70;;;;;;5013093;28;20066;-82
2021/01/20 11:41:24;;;;;;;117.53;46.97;;;-9.60;61.40;;;;;;5013365;28;20054;-82
2021/01/20 11:43:51;;;;;;;151.45;56.50;;;-9.50;61.80;;;;;;5013348;28;20455;-82
2021/01/20 11:46:20;;;;;;;156.20;57.25;;;-9.40;61.90;;;;;;5013262;28;20034;-82
2021/01/20 11:48:47;;;;;;;122.90;50.03;;;-9.40;61.30;;;;;;5013161;28;20080;-82
2021/01/20 11:51:13;;;;;;;142.60;55.25;;;-9.50;60.90;;;;;;5012942;28;20472;-82
2021/01/20 11:53:38;;;;;;;110.25;43.28;;;-9.50;61.10;;;;;;5013601;28;20167;-82
2021/01/20 11:56:04;;;;;;;120.05;47.90;;;-9.30;62.60;;;;;;5012743;28;20038;-82
2021/01/20 11:58:30;;;;;;;142.98;57.05;;;-9.20;62.10;;;;;;5012615;28;20037;-82
2021/01/20 12:00:56;;;;;;;148.65;57.22;;;-9.10;62.60;;;;;;5014095;28;20034;-82
2021/01/20 12:03:23;;;;;;;147.82;55.78;;;-9.30;61.30;;;;;;5012259;28;20057;-83
2021/01/20 12:05:53;;;;;;;126.03;51.10;;;-9.30;61.00;;;;;;5012536;28;20053;-81
2021/01/20 12:08:19;;;;;;;138.98;53.08;;;-9.30;61.70;;;;;;5012606;28;20408;-81
2021/01/20 12:10:45;;;;;;;115.38;46.17;;;-9.30;61.60;;;;;;5012618;28;20034;-81
2021/01/20 12:13:11;;;;;;;121.35;46.75;;;-9.20;62.60;;;;;;5011930;28;20034;-81
2021/01/20 12:15:38;;;;;;;118.50;45.72;;;-9.00;62.70;;;;;;5011778;28;20057;-81
2021/01/20 12:18:05;;;;;;;162.18;68.10;;;-9.00;62.20;;;;;;5011492;28;20073;-81